Canberra, Capital Territory

7:27 AM AEDT on January 30, 2015 (GMT +1100)
Madison Apartments | Change Station
CLOSE
Current Station
Personal Weather Station
Location: Narrabundah, AUSTRALIAN CAPITAL TERRITORY
Elevation: 1916 ft
Nearby Weather Stations

Elev 1916 ft 35.34 °S, 149.15 °E | Updated 38 seconds ago

Scattered Clouds
Scattered Clouds
50.9 °F
Feels Like 50.9 °F
N
0.0
Wind Variable Wind from SW
Gusts 0.0 mph

Today
High -- | Low -- °F
--% Chance of Precip.
Yesterday
High -- | Low -- °F
Precip. -- in
6:19 AM 8:13 PM
Waxing Gibbous, 77% visible
Pressure 29.86 in
Visibility 6.2 miles
Clouds Few 1800 ft
Scattered Clouds 17000 ft
Dew Point 41 °F
Humidity 68%
Rainfall 0.00 in
Snow Depth Not available.
UV 0.0 out of 12
Pollen Not available.
Air Quality Not available.
Flu Activity Not available.
METAR YSCB 292000Z 13002KT 9999 FEW018 SCT170 09/05 Q1011 FM2000 MOD TURB BLW 5000FT

More Conditions Fewer Conditions

Pressure 29.86 in
Visibility 6.2 miles
Clouds Few 1800 ft
Scattered Clouds 17000 ft
Dew Point 41 °F
Humidity 68%
Rainfall 0.00 in
Snow Depth Not available.
UV 0.0 out of 12
Pollen Not available.
Air Quality Not available.
Flu Activity Not available.
METAR YSCB 292000Z 13002KT 9999 FEW018 SCT170 09/05 Q1011 FM2000 MOD TURB BLW 5000FT

More Conditions Fewer Conditions

10-Day Weather Forecast

Almanac

Astronomy

Jan. 30, 2015 Rise Set
Actual Time
Civil Twilight
Nautical Twilight
Astronomical Twilight
Moon
Length of Visible Light
Length of Day
Tomorrow will be .
, % of the Moon is Illuminated

Today's Extremes

Country Highs Country Lows

Community

WunderPhotos

Upload Photos

1,791,577 photos uploaded!

WunderBlogs® & News

Nearby

Air Quality

  Air Quality AQ Index Pollutant
Not available.

Snow Depth

Station Depth Elevation

Earthquake Activity

City Distance Mag. Time & Date
Minimum magnitude displayed is 2.5.

Coastal Water Temperatures

Place Temperature

Nearby Weather Stations